• Join FlightAware (Why Join?)
  • Login
  • US Flag 
05:59AM EDT


 

Airport Tracker/Info


-or-


 

Live Flight TrackerFlight Track Log ✈ ASQ6111 ✈ 21-Apr-2013 ✈ KDEN - KPIA

Flight Track Log - Related Links

Times and Time Zones

All times are in EDT time to prevent confusion due to time zone crossing. See the ASQ6111 flight status page for this flight to view local times or setup timezone preferences in your user account.

Time Position Orientation Groundspeed Altitude Reporting Facility
EDT Latitude Longitude Course Direction KTS MPH feet Rate Location/Type
10:53PM 39.8833 -104.6167 108° East 174 200 6,300  Level Denver TRACON
10:54PM 39.8667 -104.5500 108° East 203 234 8,300 1,740 Climbing Denver TRACON
10:55PM 39.8333 -104.4667 117° Southeast 269 310 9,700 1,740 Climbing Denver TRACON
10:56PM 39.8197 -104.4214 111° Southeast 283 326 10,900 1,740 Climbing Denver Center
10:57PM 39.8067 -104.3103 99° East 317 365 12,500 1,500 Climbing Denver Center
10:58PM 39.7911 -104.1742 98° East 353 406 14,000 1,500 Climbing Denver Center
10:59PM 39.7756 -104.0339 98° East 388 447 15,600 1,680 Climbing Denver Center
11:00PM 39.7608 -103.8919 98° East 401 461 17,500 1,620 Climbing Denver Center
11:01PM 39.7428 -103.7492 99° East 408 470 19,000 1,800 Climbing Denver Center
11:02PM 39.7308 -103.6031 96° East 395 455 21,300 2,040 Climbing Denver Center
11:03PM 39.7194 -103.4600 96° East 395 455 23,200 1,860 Climbing Denver Center
11:04PM 39.7083 -103.3150 96° East 398 458 25,200 1,740 Climbing Denver Center
11:05PM 39.6958 -103.1714 96° East 399 459 26,800 1,380 Climbing Denver Center
11:06PM 39.6831 -103.0242 96° East 405 466 28,100 1,260 Climbing Denver Center
11:07PM 39.6717 -102.8747 96° East 411 473 29,400 1,200 Climbing Denver Center
11:08PM 39.6558 -102.7069 97° East 421 484 30,600 1,020 Climbing Denver Center
11:09PM 39.6442 -102.5594 96° East 429 494 31,600 1,020 Climbing Denver Center
11:10PM 39.6269 -102.3814 97° East 443 510 32,700 960 Climbing Denver Center
11:11PM 39.6139 -102.2272 96° East 451 519 33,600 900 Climbing Denver Center
11:12PM 39.6000 -102.0711 97° East 456 525 34,600 660 Climbing Denver Center
11:13PM 39.5864 -101.9136 96° East 459 528 35,000 180 Climbing Denver Center
11:14PM 39.5706 -101.7208 96° East 483 556 35,000  Level Denver Center
11:15PM 39.5539 -101.5214 96° East 500 575 35,000  Level Denver Center
11:16PM 39.5369 -101.3508 97° East 501 577 35,000  Level Denver Center
11:17PM 39.5119 -101.1844 101° East 495 570 35,000  Level Denver Center
11:18PM 39.4831 -100.9906 101° East 493 567 35,000  Level Denver Center
11:19PM 39.4578 -100.8258 101° East 490 564 35,000  Level Denver Center
11:20PM 39.4286 -100.6317 101° East 493 567 35,000  Level Denver Center
11:21PM 39.4036 -100.4667 101° East 492 566 35,000  Level Denver Center
11:22PM 39.3772 -100.2978 101° East 498 573 35,000  Level Denver Center
11:23PM 39.3461 -100.1047 102° East 496 571 35,000  Level Denver Center
11:24PM 39.3192 -99.9356 102° East 499 574 35,000  Level Denver Center
11:25PM 39.2886 -99.7408 101° East 497 572 35,000  Level Denver Center
11:26PM 39.2619 -99.5750 102° East 496 571 35,000  Level Denver Center
11:27PM 39.2347 -99.4103 102° East 494 568 35,000  Level Denver Center
11:28PM 39.2050 -99.2203 101° East 488 562 35,000  Level Denver Center
11:30PM 39.2258 -99.0572 81° East 480 552 35,000  Level Denver Center
11:31PM 39.2561 -98.8781 78° East 484 557 35,000  Level Denver Center
11:32PM 39.2842 -98.7108 78° East 479 551 35,000  Level Denver Center
11:33PM 39.3128 -98.5444 77° East 477 549 35,000  Level Denver Center
11:34PM 39.3394 -98.3775 78° East 477 549 35,000  Level Denver Center
11:34PM 39.3558 -98.2744 78° East 475 547 35,000  Level Kansas City Center
11:35PM 39.3822 -98.1125 78° East 472 543 35,000  Level Kansas City Center
11:36PM 39.4133 -97.9258 78° East 474 545 35,000  Level Kansas City Center
11:37PM 39.4381 -97.7747 78° East 478 550 35,000  Level Kansas City Center
11:38PM 39.4636 -97.6075 79° East 475 547 35,000  Level Kansas City Center
11:39PM 39.4917 -97.4208 79° East 467 537 35,000  Level Kansas City Center
11:40PM 39.5214 -97.2433 78° East 474 545 35,000  Level Kansas City Center
11:41PM 39.5428 -97.0897 80° East 476 548 35,000  Level Kansas City Center
11:42PM 39.5686 -96.9225 79° East 474 545 35,000  Level Kansas City Center
11:43PM 39.5956 -96.7400 79° East 476 548 35,000  Level Kansas City Center
11:44PM 39.6192 -96.5736 80° East 471 542 35,000  Level Kansas City Center
11:45PM 39.6425 -96.4181 79° East 475 547 35,000  Level Kansas City Center
11:46PM 39.6731 -96.2525 76° East 474 545 35,000  Level Kansas City Center
11:47PM 39.7025 -96.0869 77° East 468 539 35,000  Level Kansas City Center
11:48PM 39.7364 -95.9000 77° East 473 544 35,000  Level Kansas City Center
11:49PM 39.7656 -95.7403 77° East 475 547 35,000  Level Kansas City Center
11:50PM 39.7936 -95.5794 77° East 475 547 35,000  Level Kansas City Center
11:51PM 39.8208 -95.4183 78° East 475 547 35,000  Level Kansas City Center
11:52PM 39.8539 -95.2253 77° East 484 557 35,000  Level Kansas City Center
11:53PM 39.8828 -95.0611 77° East 485 558 35,000  Level Kansas City Center
11:54PM 39.9100 -94.8969 78° East 484 557 35,000  Level Kansas City Center
11:55PM 39.9431 -94.7056 77° East 483 556 35,000  Level Kansas City Center
11:56PM 39.9703 -94.5417 78° East 483 556 35,000  Level Kansas City Center
11:57PM 39.9967 -94.3794 78° East 478 550 35,000  Level Kansas City Center
11:58PM 40.0258 -94.1944 78° East 467 537 35,000  Level Kansas City Center
11:59PM 40.0483 -94.0581 78° East 463 533 35,000  Level Kansas City Center
12:01AM 40.0731 -93.8936 79° East 467 537 35,000  Level Kansas City Center
12:02AM 40.1044 -93.6969 78° East 467 537 35,000  Level Kansas City Center
12:02AM 40.1306 -93.5286 78° East 474 545 35,000  Level Kansas City Center
12:03AM 40.1575 -93.3592 78° East 480 552 35,000  Level Kansas City Center
12:05AM 40.1836 -93.1906 78° East 478 550 35,000  Level Kansas City Center
12:06AM 40.2108 -93.0161 78° East 473 544 35,000  Level Kansas City Center
12:07AM 40.2347 -92.8550 79° East 471 542 35,000  Level Kansas City Center
12:08AM 40.2603 -92.6942 78° East 472 543 35,000  Level Kansas City Center
12:09AM 40.2892 -92.5103 78° East 465 535 35,000  Level Kansas City Center
12:10AM 40.3128 -92.3425 79° East 468 539 35,000  Level Kansas City Center
12:11AM 40.3367 -92.1747 79° East 472 543 35,000 -420 Level Kansas City Center
12:12AM 40.3594 -92.0100 80° East 465 535 34,200 -1,320 Descending Kansas City Center
12:13AM 40.3808 -91.8494 80° East 455 524 32,400 -2,040 Descending Kansas City Center
12:14AM 40.4047 -91.6847 79° East 459 528 30,200 -2,220 Descending Kansas City Center
12:15AM 40.4281 -91.5186 79° East 463 533 28,000 -2,280 Descending Kansas City Center
12:16AM 40.4503 -91.3511 80° East 467 537 25,700 -2,340 Descending Kansas City Center
12:17AM 40.4731 -91.1842 80° East 462 532 23,300 -2,460 Descending Kansas City Center
12:18AM 40.4953 -91.0231 80° East 452 520 20,800 -2,580 Descending Kansas City Center
12:19AM 40.5194 -90.8458 80° East 412 474 17,900 -2,460 Descending Chicago Center
12:20AM 40.5369 -90.7094 80° East 382 440 15,700 -2,340 Descending Chicago Center
12:21AM 40.5536 -90.5822 80° East 359 413 13,200 -2,040 Descending Chicago Center
12:22AM 40.5678 -90.4689 81° East 313 360 11,700 -1,200 Descending Chicago Center
12:23AM 40.5811 -90.3639 80° East 293 337 10,900 -1,080 Descending Chicago Center
12:24AM 40.5939 -90.2619 81° East 284 327 9,600 -1,440 Descending Chicago Center
12:25AM 40.6072 -90.1564 81° East 290 334 8,100 -1,680 Descending Chicago Center
12:26AM 40.6247 -90.0619 76° East 278 320 6,300 -1,740 Descending Chicago Center
12:27AM 40.6650 -89.9828 56° Northeast 266 306 4,600 -1,380 Descending Chicago Center
12:28AM 40.6986 -89.9092 59° Northeast 250 288 3,600 -900 Descending Chicago Center
12:29AM 40.7200 -89.8450 66° East 209 241 2,800 -660 Descending Chicago Center
12:30AM 40.7178 -89.8022 94° East 171 197 2,300 -600 Descending Chicago Center
12:31AM 40.7025 -89.7617 116° Southeast 140 161 1,700 -660 Descending Chicago Center
12:32AM 40.6811 -89.7269 129° Southeast 127 146 1,000 -540 Descending Chicago Center
12:33AM 40.6611 -89.6911 126° Southeast 126 145 700 -300 Descending Chicago Center